Time;durP1;ratioP1;P1;durP2;ratioP2;P2;SDS_P1;SDS_P2;PMS_P1;PMS_P2;Temp;Humidity;BMP_temperature;BMP_pressure;BME280_temperature;BME280_humidity;BME280_pressure;Samples;Min_cycle;Max_cycle;Signal;HPM_P1;HPM_P2
2021/10/04 00:03:12;;;;;;;16.70;10.70;;;;;;;13.01;64.55;99119.50;235779;1195;139060;-62
2021/10/04 00:08:15;;;;;;;23.40;10.80;;;;;;;12.97;64.57;99123.29;235895;1195;139572;-63
2021/10/04 00:13:21;;;;;;;17.40;10.10;;;;;;;12.98;64.59;99121.30;236189;1194;139613;-65
2021/10/04 00:18:44;;;;;;;15.90;10.00;;;;;;;12.97;64.91;99119.63;236177;1193;138804;-66
2021/10/04 00:23:48;;;;;;;16.10;10.50;;;;;;;12.96;64.85;99120.72;236183;1195;138548;-63
2021/10/04 00:28:51;;;;;;;15.90;10.70;;;;;;;12.94;64.72;99119.30;235997;1195;139719;-62
2021/10/04 00:33:54;;;;;;;14.90;10.50;;;;;;;12.88;64.91;99116.15;235588;1195;139893;-64
2021/10/04 00:38:57;;;;;;;17.30;10.50;;;;;;;12.81;64.83;99115.53;236284;1195;138672;-62
2021/10/04 00:44:00;;;;;;;14.50;9.20;;;;;;;12.74;64.86;99119.64;236070;1194;139419;-62
2021/10/04 00:49:03;;;;;;;16.00;10.10;;;;;;;12.69;65.17;99110.20;236222;1194;140103;-66
2021/10/04 00:54:06;;;;;;;15.60;9.60;;;;;;;12.71;65.16;99110.02;235937;1195;139340;-62
2021/10/04 00:59:10;;;;;;;16.60;10.00;;;;;;;12.73;65.11;99098.30;236006;1195;139168;-63
2021/10/04 01:04:14;;;;;;;14.90;9.60;;;;;;;12.74;65.18;99098.39;236136;1195;140110;-64
2021/10/04 01:09:17;;;;;;;15.70;10.60;;;;;;;12.74;65.19;99097.73;236306;1195;138801;-63
2021/10/04 01:14:20;;;;;;;17.50;9.90;;;;;;;12.69;65.01;99094.46;236507;1193;138983;-62
2021/10/04 01:19:24;;;;;;;13.40;9.40;;;;;;;12.65;65.24;99093.02;236228;1195;139087;-61
2021/10/04 01:24:27;;;;;;;14.90;8.90;;;;;;;12.59;65.26;99094.88;236157;1195;138905;-61
2021/10/04 01:29:30;;;;;;;13.30;8.80;;;;;;;12.58;65.47;99098.14;235833;1195;139227;-60
2021/10/04 01:34:34;;;;;;;13.30;8.40;;;;;;;12.60;65.37;99098.33;236172;1194;139117;-62
2021/10/04 01:39:37;;;;;;;12.80;8.70;;;;;;;12.64;65.52;99097.74;236135;1195;139505;-61
2021/10/04 01:44:40;;;;;;;15.00;9.40;;;;;;;12.64;65.39;99111.98;236142;1195;139826;-61
2021/10/04 01:49:44;;;;;;;14.40;8.60;;;;;;;12.62;65.53;99105.52;235916;1195;138452;-63
2021/10/04 01:54:47;;;;;;;13.60;8.70;;;;;;;12.59;65.58;99103.93;236115;1195;139179;-62
2021/10/04 01:59:50;;;;;;;12.80;8.40;;;;;;;12.53;65.38;99098.45;236292;1195;139250;-60
2021/10/04 02:04:53;;;;;;;14.80;8.00;;;;;;;12.50;65.49;99099.01;236459;1195;138602;-58
2021/10/04 02:09:57;;;;;;;11.20;7.30;;;;;;;12.51;65.77;99095.02;236131;1195;140475;-60
2021/10/04 02:15:01;;;;;;;12.80;8.90;;;;;;;12.54;65.59;99097.34;236375;1194;140127;-62
2021/10/04 02:20:08;;;;;;;12.80;8.60;;;;;;;12.56;65.67;99103.77;236149;1194;139732;-62
2021/10/04 02:25:12;;;;;;;12.10;8.20;;;;;;;12.56;65.67;99104.66;236081;1194;138673;-63
2021/10/04 02:30:23;;;;;;;14.30;8.40;;;;;;;12.51;65.58;99107.86;235381;1194;139305;-62
2021/10/04 02:35:27;;;;;;;13.60;7.80;;;;;;;12.42;65.74;99105.44;236264;1195;138761;-65
2021/10/04 02:40:30;;;;;;;12.30;8.30;;;;;;;12.36;65.65;99092.14;236006;1195;139171;-64
2021/10/04 02:45:33;;;;;;;12.60;7.20;;;;;;;12.34;65.83;99098.54;236290;1195;139320;-64
2021/10/04 02:50:36;;;;;;;232.60;182.80;;;;;;;12.36;65.92;99097.13;236173;1188;139710;-65
2021/10/04 02:55:40;;;;;;;12.60;8.20;;;;;;;12.44;65.95;99098.88;235981;1195;140230;-65
2021/10/04 03:00:45;;;;;;;11.90;7.70;;;;;;;12.44;65.81;99102.27;236157;1195;138989;-61
2021/10/04 03:05:48;;;;;;;9.80;7.50;;;;;;;12.42;65.83;99103.84;236464;1195;143616;-62
2021/10/04 03:10:51;;;;;;;11.60;8.40;;;;;;;12.38;66.10;99104.98;235674;1195;138341;-62
2021/10/04 03:15:55;;;;;;;109.60;74.00;;;;;;;12.31;65.85;99103.35;236480;1187;138851;-61
2021/10/04 03:20:59;;;;;;;16.40;9.20;;;;;;;12.33;66.29;99100.05;236086;1195;139686;-62
2021/10/04 03:26:02;;;;;;;11.70;8.20;;;;;;;12.36;66.12;99099.98;236055;1195;141260;-62
2021/10/04 03:31:05;;;;;;;15.20;8.20;;;;;;;12.32;65.77;99097.75;236030;1195;139163;-62
2021/10/04 03:36:08;;;;;;;14.60;7.70;;;;;;;12.29;65.88;99098.14;236164;1195;139800;-63
2021/10/04 03:41:11;;;;;;;12.20;8.50;;;;;;;12.27;66.08;99099.50;236086;1195;139506;-61
2021/10/04 03:46:18;;;;;;;12.80;8.70;;;;;;;12.27;65.80;99110.04;236380;1195;138609;-62
2021/10/04 03:51:21;;;;;;;11.70;8.40;;;;;;;12.22;65.86;99108.58;236063;1195;138969;-62
2021/10/04 03:56:25;;;;;;;12.50;7.70;;;;;;;12.18;65.79;99109.61;236339;1195;139498;-62
2021/10/04 04:01:28;;;;;;;84.80;59.60;;;;;;;12.14;66.39;99109.48;236317;1194;138268;-61
2021/10/04 04:06:31;;;;;;;14.20;8.50;;;;;;;12.15;66.35;99113.52;235993;1195;138930;-65
2021/10/04 04:11:35;;;;;;;12.50;7.70;;;;;;;12.14;66.23;99114.46;236339;1195;140616;-64
2021/10/04 04:16:38;;;;;;;11.90;8.60;;;;;;;12.15;66.38;99112.61;236433;1194;140012;-61
2021/10/04 04:21:42;;;;;;;13.40;8.90;;;;;;;12.15;66.10;99112.83;236308;1195;138237;-63
2021/10/04 04:26:46;;;;;;;14.60;9.10;;;;;;;12.11;65.96;99117.52;234796;1195;138975;-63
2021/10/04 04:31:50;;;;;;;16.00;9.40;;;;;;;12.03;66.07;99113.07;236178;1195;139700;-61
2021/10/04 04:36:54;;;;;;;19.70;9.80;;;;;;;11.95;65.98;99114.14;236435;1194;138283;-65
2021/10/04 04:41:57;;;;;;;14.40;9.80;;;;;;;11.86;66.01;99116.13;236170;1195;139460;-63
2021/10/04 04:47:00;;;;;;;24.40;9.80;;;;;;;11.74;65.68;99116.39;236447;1195;140529;-67
2021/10/04 04:52:04;;;;;;;12.50;9.00;;;;;;;11.65;65.62;99120.38;236424;1194;140593;-63
2021/10/04 04:57:07;;;;;;;19.50;9.30;;;;;;;11.59;65.96;99121.79;236318;1195;140544;-64
2021/10/04 05:02:10;;;;;;;22.90;10.60;;;;;;;11.60;66.16;99125.09;236473;1195;140644;-62
2021/10/04 05:07:13;;;;;;;18.00;10.50;;;;;;;11.62;66.17;99124.63;236013;1195;139704;-59
2021/10/04 05:12:16;;;;;;;17.90;11.10;;;;;;;11.63;66.32;99122.08;235315;1195;138915;-60
2021/10/04 05:17:19;;;;;;;23.10;11.50;;;;;;;11.60;66.25;99122.91;236493;1195;140325;-59
2021/10/04 05:22:23;;;;;;;19.90;10.40;;;;;;;11.58;66.35;99125.73;236299;1195;139761;-62
2021/10/04 05:27:27;;;;;;;17.50;11.10;;;;;;;11.55;66.17;99127.20;236289;1195;139364;-63
2021/10/04 05:32:30;;;;;;;22.00;10.80;;;;;;;11.51;66.76;99127.77;235492;1195;139854;-64
2021/10/04 05:37:33;;;;;;;20.70;10.10;;;;;;;11.54;66.60;99128.36;236228;1195;140377;-62
2021/10/04 05:42:37;;;;;;;18.30;10.60;;;;;;;11.62;66.93;99130.30;236510;1194;141006;-63
2021/10/04 05:47:40;;;;;;;19.20;11.10;;;;;;;11.73;67.18;99135.66;235973;1195;139280;-63
2021/10/04 05:52:52;;;;;;;22.90;10.50;;;;;;;11.81;67.22;99136.55;236219;1195;140620;-63
2021/10/04 05:57:55;;;;;;;23.70;9.20;;;;;;;11.90;67.21;99134.55;236330;1194;140025;-64
2021/10/04 06:02:58;;;;;;;14.00;9.90;;;;;;;12.01;67.29;99141.85;236073;1195;138510;-61
2021/10/04 06:08:02;;;;;;;16.80;9.70;;;;;;;12.11;67.20;99145.46;235810;1195;140272;-64
2021/10/04 06:13:05;;;;;;;16.40;9.40;;;;;;;12.22;67.13;99138.70;235967;1195;139526;-64
2021/10/04 06:18:12;;;;;;;15.90;9.60;;;;;;;12.33;67.37;99138.82;236338;1194;139410;-62
2021/10/04 06:23:15;;;;;;;14.40;9.30;;;;;;;12.46;67.45;99142.73;236235;1195;140070;-62
2021/10/04 06:28:18;;;;;;;17.00;9.60;;;;;;;12.60;67.31;99146.42;236408;1193;139330;-63
2021/10/04 06:33:21;;;;;;;17.70;9.80;;;;;;;12.70;67.21;99149.40;236190;1195;138863;-62
2021/10/04 06:38:24;;;;;;;14.80;9.10;;;;;;;12.79;67.38;99151.98;236355;1194;139192;-61
2021/10/04 06:43:30;;;;;;;15.70;8.60;;;;;;;12.88;67.20;99154.04;236174;1194;139223;-64
2021/10/04 06:48:38;;;;;;;14.00;8.40;;;;;;;13.02;67.39;99154.52;236184;1193;140422;-61
2021/10/04 06:53:42;;;;;;;18.10;8.60;;;;;;;13.19;67.38;99158.67;236630;1194;140133;-61
2021/10/04 06:58:45;;;;;;;11.80;8.40;;;;;;;13.34;67.43;99160.81;236124;1194;139923;-61
2021/10/04 07:03:49;;;;;;;17.20;9.40;;;;;;;13.48;67.41;99165.73;235942;1195;138777;-62
2021/10/04 07:08:52;;;;;;;14.70;8.30;;;;;;;13.62;67.40;99165.59;235814;1195;139570;-62
2021/10/04 07:13:57;;;;;;;12.00;8.40;;;;;;;13.70;67.34;99164.09;236214;1195;139120;-64
2021/10/04 07:19:00;;;;;;;13.40;7.70;;;;;;;13.82;67.36;99169.50;236142;1195;140215;-63
2021/10/04 07:24:04;;;;;;;12.20;7.20;;;;;;;13.94;67.29;99171.10;236076;1195;139215;-64
2021/10/04 07:29:07;;;;;;;11.00;7.30;;;;;;;14.11;67.50;99174.47;236438;1193;139966;-63
2021/10/04 07:34:10;;;;;;;17.40;8.20;;;;;;;14.28;67.66;99174.63;236215;1193;140400;-63
2021/10/04 07:39:15;;;;;;;13.20;7.10;;;;;;;14.43;67.38;99177.41;236079;1195;138292;-62
2021/10/04 07:44:20;;;;;;;14.70;7.60;;;;;;;14.57;67.50;99178.35;236242;1194;139516;-66
2021/10/04 07:49:24;;;;;;;12.80;8.20;;;;;;;14.69;67.49;99179.80;235754;1195;139823;-62
2021/10/04 07:54:30;;;;;;;11.30;6.50;;;;;;;14.80;67.34;99175.35;236311;1195;138524;-67
2021/10/04 07:59:36;;;;;;;11.30;7.00;;;;;;;14.93;67.20;99171.34;236689;1195;139589;-64
2021/10/04 08:04:39;;;;;;;11.40;7.40;;;;;;;15.06;67.35;99170.64;236550;1193;141186;-63
2021/10/04 08:09:44;;;;;;;11.60;7.60;;;;;;;15.27;67.16;99168.08;236417;1193;139259;-62
2021/10/04 08:14:47;;;;;;;16.90;9.40;;;;;;;15.43;67.07;99165.91;236499;1195;139550;-61
2021/10/04 08:19:50;;;;;;;16.50;8.10;;;;;;;15.57;67.18;99164.98;236342;1193;139026;-65
2021/10/04 08:24:54;;;;;;;17.20;8.40;;;;;;;15.68;67.06;99161.64;236508;1193;139838;-64
2021/10/04 08:29:57;;;;;;;460.00;332.30;;;;;;;15.80;67.02;99156.65;235756;1195;139621;-64
2021/10/04 08:35:02;;;;;;;123.30;78.70;;;;;;;15.92;67.10;99158.04;235944;1195;140075;-65
2021/10/04 08:40:15;;;;;;;26.80;14.80;;;;;;;16.12;66.87;99158.90;236100;1195;139847;-64
2021/10/04 08:45:18;;;;;;;18.30;8.60;;;;;;;16.30;66.99;99152.54;236111;1193;139434;-65
2021/10/04 08:50:22;;;;;;;17.60;9.50;;;;;;;16.46;66.78;99153.14;236302;1195;138946;-65
2021/10/04 08:55:26;;;;;;;23.10;9.70;;;;;;;16.57;66.51;99157.58;235644;1195;138402;-64
2021/10/04 09:00:29;;;;;;;18.30;9.00;;;;;;;16.65;66.50;99158.48;235596;1195;138643;-64
2021/10/04 09:05:33;;;;;;;22.30;9.80;;;;;;;16.74;66.49;99156.53;236398;1195;138647;-63
2021/10/04 09:10:43;;;;;;;21.30;9.70;;;;;;;16.86;66.15;99160.02;235861;1194;139011;-65
2021/10/04 09:15:51;;;;;;;14.80;8.10;;;;;;;16.97;66.37;99150.63;236229;1195;138444;-64
2021/10/04 09:21:09;;;;;;;20.80;8.70;;;;;;;17.07;66.05;99145.59;236057;1195;139348;-63
2021/10/04 09:26:35;;;;;;;14.50;8.90;;;;;;;17.26;65.97;99144.35;236064;1194;142176;-65
2021/10/04 09:31:43;;;;;;;20.90;9.60;;;;;;;17.44;66.09;99143.25;236044;1193;138921;-65
2021/10/04 09:36:52;;;;;;;20.20;9.10;;;;;;;17.62;66.02;99145.97;236116;1195;138303;-65
2021/10/04 09:42:12;;;;;;;18.00;9.10;;;;;;;17.75;65.73;99137.67;236421;1195;139439;-66
2021/10/04 09:47:33;;;;;;;46.50;31.50;;;;;;;17.86;65.55;99135.80;235878;1195;138277;-64
2021/10/04 09:52:36;;;;;;;64.90;39.10;;;;;;;18.01;65.50;99134.81;236111;1193;138756;-68
2021/10/04 09:57:39;;;;;;;27.80;12.40;;;;;;;18.09;65.19;99135.13;236354;1193;139683;-64
2021/10/04 10:02:42;;;;;;;19.60;9.20;;;;;;;18.16;65.03;99130.17;236098;1195;139478;-63
2021/10/04 10:07:45;;;;;;;21.40;10.60;;;;;;;18.25;64.92;99128.29;236002;1195;139402;-63
2021/10/04 10:13:11;;;;;;;25.20;10.50;;;;;;;18.40;64.98;99128.98;236103;1194;140514;-64
2021/10/04 10:18:25;;;;;;;23.00;10.40;;;;;;;18.55;64.99;99125.95;236127;1195;139482;-64
2021/10/04 10:23:53;;;;;;;21.50;10.00;;;;;;;18.78;65.04;99124.02;236322;1194;138920;-62
2021/10/04 10:29:08;;;;;;;23.40;10.00;;;;;;;18.99;64.96;99121.87;236386;1195;139321;-64
2021/10/04 10:34:32;;;;;;;19.90;10.50;;;;;;;19.15;64.82;99119.94;236521;1193;140668;-68
2021/10/04 10:39:43;;;;;;;23.10;10.00;;;;;;;19.25;64.51;99121.86;236464;1193;138971;-64
2021/10/04 10:44:55;;;;;;;20.60;10.20;;;;;;;19.32;64.19;99120.06;236297;1194;139233;-63
2021/10/04 10:50:31;;;;;;;480.20;109.10;;;;;;;19.37;63.95;99118.75;236057;1194;139874;-71
2021/10/04 10:55:46;;;;;;;244.00;53.50;;;;;;;19.40;63.65;99111.79;236457;1194;139255;-64
2021/10/04 11:00:49;;;;;;;40.40;13.40;;;;;;;19.45;63.43;99111.29;236406;1193;140622;-64
2021/10/04 11:06:07;;;;;;;19.80;9.80;;;;;;;19.52;63.09;99106.25;236427;1195;138635;-67
2021/10/04 11:11:16;;;;;;;74.20;19.60;;;;;;;19.58;62.90;99101.38;236307;1193;140108;-69
2021/10/04 11:16:24;;;;;;;25.10;8.30;;;;;;;19.60;62.79;99097.00;236068;1195;138818;-62
2021/10/04 11:21:30;;;;;;;16.20;9.80;;;;;;;19.68;62.48;99093.80;236294;1194;139444;-64
2021/10/04 11:26:39;;;;;;;22.50;8.70;;;;;;;19.75;62.41;99095.96;236362;1193;139178;-64
2021/10/04 11:31:46;;;;;;;20.80;8.10;;;;;;;19.82;62.29;99096.85;236189;1193;140112;-65
2021/10/04 11:36:56;;;;;;;29.20;8.70;;;;;;;19.91;62.28;99096.58;236190;1195;139502;-64
2021/10/04 11:42:08;;;;;;;15.10;7.70;;;;;;;20.04;62.29;99090.85;235989;1195;139985;-64
2021/10/04 11:47:13;;;;;;;18.80;8.50;;;;;;;20.27;62.31;99087.69;236078;1195;138343;-64
2021/10/04 11:52:19;;;;;;;14.50;7.90;;;;;;;20.49;62.20;99083.05;236416;1194;138958;-63
2021/10/04 11:57:22;;;;;;;47.00;10.40;;;;;;;20.65;61.96;99077.52;236446;1193;139401;-62
2021/10/04 12:02:28;;;;;;;43.90;9.60;;;;;;;20.75;61.75;99083.50;236097;1193;139584;-63
2021/10/04 12:07:32;;;;;;;32.10;9.70;;;;;;;20.78;61.52;99082.81;236310;1195;138940;-63
2021/10/04 12:12:37;;;;;;;17.10;8.80;;;;;;;20.78;61.39;99082.84;236182;1195;139461;-64
2021/10/04 12:17:41;;;;;;;21.70;8.80;;;;;;;20.77;61.31;99081.79;236028;1195;138562;-61
2021/10/04 12:22:44;;;;;;;24.20;8.10;;;;;;;20.74;61.20;99073.63;235623;1195;139387;-63
2021/10/04 12:28:06;;;;;;;15.70;6.90;;;;;;;20.73;61.21;99070.13;235645;1195;140276;-63
2021/10/04 12:33:09;;;;;;;15.60;8.10;;;;;;;20.78;61.00;99070.14;235224;1195;139739;-62
2021/10/04 12:38:17;;;;;;;449.70;315.70;;;;;;;20.79;60.94;99071.86;236069;1195;139679;-65
2021/10/04 12:43:22;;;;;;;35.70;22.60;;;;;;;20.78;60.87;99073.08;235669;1195;139164;-64
2021/10/04 12:48:27;;;;;;;26.80;9.50;;;;;;;20.78;60.78;99071.09;236453;1195;138730;-62
2021/10/04 12:53:30;;;;;;;37.40;10.80;;;;;;;20.85;60.68;99073.63;236551;1194;139516;-62
2021/10/04 12:58:37;;;;;;;14.00;7.70;;;;;;;20.96;60.68;99069.05;235622;1195;139804;-63
2021/10/04 13:03:54;;;;;;;19.00;7.60;;;;;;;21.10;60.58;99065.77;236179;1195;138803;-63
2021/10/04 13:09:00;;;;;;;12.70;8.20;;;;;;;21.27;60.49;99066.10;236262;1193;139189;-64
2021/10/04 13:14:05;;;;;;;18.60;8.10;;;;;;;21.48;60.42;99065.41;236343;1195;138377;-65
2021/10/04 13:19:09;;;;;;;15.60;8.00;;;;;;;21.68;60.30;99063.85;236380;1194;140368;-63
2021/10/04 13:24:13;;;;;;;13.40;7.70;;;;;;;21.82;59.88;99067.88;236243;1193;138972;-63
2021/10/04 13:29:16;;;;;;;92.80;64.10;;;;;;;21.79;59.56;99070.90;236406;1195;138623;-65
2021/10/04 13:34:20;;;;;;;20.90;13.20;;;;;;;21.70;59.51;99070.33;236376;1194;139891;-64
2021/10/04 13:39:23;;;;;;;14.00;7.80;;;;;;;21.60;59.39;99068.83;236154;1194;139688;-66
2021/10/04 13:44:26;;;;;;;18.50;8.20;;;;;;;21.48;59.29;99081.80;236393;1194;138738;-61
2021/10/04 13:49:29;;;;;;;28.90;9.90;;;;;;;21.36;59.46;99085.02;236336;1194;138463;-63
2021/10/04 13:54:32;;;;;;;20.60;9.50;;;;;;;21.25;59.38;99089.56;235746;1193;138654;-62
2021/10/04 13:59:35;;;;;;;14.80;8.60;;;;;;;21.17;59.52;99094.11;236282;1193;138883;-63
2021/10/04 14:04:38;;;;;;;18.30;7.60;;;;;;;21.06;59.50;99088.95;236252;1193;138550;-65
2021/10/04 14:09:41;;;;;;;20.10;7.70;;;;;;;20.98;59.34;99093.55;235676;1193;139779;-63
2021/10/04 14:14:44;;;;;;;12.80;7.30;;;;;;;20.91;59.47;99091.08;236017;1192;139621;-64
2021/10/04 14:19:48;;;;;;;11.60;7.00;;;;;;;20.84;59.45;99092.65;236148;1193;139394;-64
2021/10/04 14:24:54;;;;;;;12.10;7.00;;;;;;;20.79;59.42;99089.91;236366;1193;140001;-63
2021/10/04 14:29:59;;;;;;;11.20;7.70;;;;;;;20.74;59.62;99093.48;236214;1193;138681;-64
2021/10/04 14:35:15;;;;;;;10.90;7.20;;;;;;;20.69;59.55;99096.58;236276;1194;139447;-66
2021/10/04 14:40:24;;;;;;;13.80;7.50;;;;;;;20.64;59.60;99098.91;236313;1193;139763;-64
2021/10/04 14:45:30;;;;;;;10.60;7.10;;;;;;;20.59;59.66;99103.42;235445;1194;138620;-64
2021/10/04 14:50:33;;;;;;;676.40;555.10;;;;;;;20.53;59.67;99112.71;236460;1193;138490;-69
2021/10/04 14:55:36;;;;;;;66.00;46.00;;;;;;;20.52;59.86;99110.75;236283;1193;140808;-65
2021/10/04 15:00:39;;;;;;;12.50;7.70;;;;;;;20.48;60.04;99110.18;236032;1193;139283;-66
2021/10/04 15:05:42;;;;;;;14.50;7.50;;;;;;;20.47;59.99;99113.75;235910;1193;140314;-66
2021/10/04 15:10:45;;;;;;;13.20;7.80;;;;;;;20.49;60.24;99119.79;236218;1193;138980;-63
2021/10/04 15:15:49;;;;;;;15.00;8.00;;;;;;;20.54;60.40;99116.85;236137;1194;140072;-64
2021/10/04 15:20:52;;;;;;;15.40;9.60;;;;;;;20.54;60.39;99117.86;236253;1193;138850;-63
2021/10/04 15:25:55;;;;;;;12.10;8.10;;;;;;;20.50;60.50;99116.30;236348;1193;138977;-62
2021/10/04 15:30:59;;;;;;;12.90;9.30;;;;;;;20.45;60.45;99113.02;236225;1193;140071;-68
2021/10/04 15:36:02;;;;;;;13.90;9.00;;;;;;;20.38;60.55;99118.98;235973;1194;139282;-60
2021/10/04 15:41:05;;;;;;;14.40;9.10;;;;;;;20.30;60.70;99117.08;236353;1195;139241;-63
2021/10/04 15:46:09;;;;;;;16.00;9.50;;;;;;;20.22;60.80;99121.50;236205;1195;138494;-70
2021/10/04 15:51:13;;;;;;;11.40;8.30;;;;;;;20.17;61.17;99122.71;236282;1193;138970;-64
2021/10/04 15:56:17;;;;;;;16.70;8.80;;;;;;;20.12;61.27;99128.27;236252;1193;139261;-63
2021/10/04 16:01:21;;;;;;;51.60;14.80;;;;;;;20.13;61.38;99130.00;236376;1193;140030;-64
2021/10/04 16:06:24;;;;;;;49.60;16.10;;;;;;;20.15;61.65;99135.73;236595;1193;139590;-63
2021/10/04 16:11:28;;;;;;;40.80;13.80;;;;;;;20.15;61.54;99141.52;236355;1194;139176;-63
2021/10/04 16:16:33;;;;;;;36.20;14.50;;;;;;;20.11;61.76;99145.65;236193;1194;140423;-62
2021/10/04 16:21:37;;;;;;;24.50;12.60;;;;;;;20.07;62.03;99144.74;236341;1194;140039;-63
2021/10/04 16:26:41;;;;;;;25.50;12.20;;;;;;;20.04;61.99;99154.64;236077;1195;138529;-63
2021/10/04 16:31:48;;;;;;;19.00;11.60;;;;;;;19.99;61.93;99160.70;236404;1193;138955;-66
2021/10/04 16:36:59;;;;;;;19.00;11.80;;;;;;;19.94;61.88;99166.98;236509;1193;139169;-63
2021/10/04 16:42:03;;;;;;;17.00;11.80;;;;;;;19.87;61.79;99168.44;236568;1194;139079;-64
2021/10/04 16:47:06;;;;;;;19.00;12.60;;;;;;;19.72;61.44;99168.79;236361;1195;139287;-65
2021/10/04 16:52:09;;;;;;;21.50;13.20;;;;;;;19.54;61.40;99174.30;236236;1195;138899;-65
2021/10/04 16:57:13;;;;;;;23.20;12.80;;;;;;;19.34;61.38;99181.48;236211;1195;139029;-66
2021/10/04 17:02:16;;;;;;;21.50;12.40;;;;;;;19.21;61.47;99183.45;236170;1193;139805;-65
2021/10/04 17:07:19;;;;;;;21.90;12.50;;;;;;;19.11;61.62;99189.25;236434;1194;139521;-66
2021/10/04 17:12:22;;;;;;;19.40;12.70;;;;;;;19.03;61.73;99186.05;236499;1193;138662;-64
2021/10/04 17:17:26;;;;;;;24.30;14.30;;;;;;;18.94;61.79;99189.40;235964;1194;139179;-63
2021/10/04 17:22:29;;;;;;;25.90;14.10;;;;;;;18.84;61.93;99198.41;236132;1195;138927;-63
2021/10/04 17:27:35;;;;;;;26.50;14.30;;;;;;;18.70;61.97;99203.48;236225;1194;138790;-70
2021/10/04 17:32:38;;;;;;;25.90;14.60;;;;;;;18.56;62.19;99204.64;236364;1195;138814;-64
2021/10/04 17:37:43;;;;;;;21.40;12.70;;;;;;;18.41;62.31;99207.55;236098;1195;138788;-63
2021/10/04 17:42:46;;;;;;;26.20;13.80;;;;;;;18.32;62.56;99208.79;236434;1193;139535;-65
2021/10/04 17:47:51;;;;;;;31.10;14.80;;;;;;;18.25;62.53;99212.67;236092;1193;139441;-64
2021/10/04 17:52:54;;;;;;;35.50;15.20;;;;;;;18.17;62.82;99216.94;236407;1194;138616;-69
2021/10/04 17:57:58;;;;;;;32.60;16.10;;;;;;;18.10;62.97;99221.04;236272;1193;139079;-65
2021/10/04 18:03:01;;;;;;;68.60;39.40;;;;;;;18.03;63.17;99222.19;236263;1195;138587;-67
2021/10/04 18:08:05;;;;;;;43.10;17.60;;;;;;;17.96;63.32;99224.80;236280;1194;141583;-64
2021/10/04 18:13:11;;;;;;;;;;;;;;;17.84;63.30;99226.04;236165;1195;139093;-69
2021/10/04 18:18:14;;;;;;;39.00;16.00;;;;;;;17.73;63.34;99226.27;236445;1193;125802;-66
2021/10/04 18:23:17;;;;;;;35.00;16.70;;;;;;;17.66;63.56;99236.45;236093;1194;139044;-62
2021/10/04 18:28:23;;;;;;;31.80;16.70;;;;;;;17.60;63.72;99245.23;236052;1195;138308;-64
2021/10/04 18:33:27;;;;;;;34.40;17.80;;;;;;;17.53;63.99;99245.41;236106;1195;139879;-64
2021/10/04 18:38:31;;;;;;;33.70;18.20;;;;;;;17.45;63.91;99245.62;236045;1195;138977;-63
2021/10/04 18:43:37;;;;;;;88.80;58.90;;;;;;;17.37;64.12;99255.09;235804;1195;138450;-64
2021/10/04 18:48:43;;;;;;;;;;;;;;;17.28;64.38;99255.92;236588;1193;138866;-63
2021/10/04 18:53:46;;;;;;;29.40;17.50;;;;;;;17.21;64.56;99258.40;236030;1193;127798;-63
2021/10/04 18:58:49;;;;;;;29.50;17.60;;;;;;;17.16;64.46;99262.25;236436;1193;140026;-63
2021/10/04 19:03:52;;;;;;;30.40;18.90;;;;;;;17.10;64.65;99260.48;236380;1194;139155;-62
2021/10/04 19:08:55;;;;;;;30.20;19.30;;;;;;;17.03;64.65;99260.75;236352;1193;138583;-65
2021/10/04 19:13:59;;;;;;;34.70;18.50;;;;;;;16.93;64.88;99262.81;236001;1195;139655;-63
2021/10/04 19:19:02;;;;;;;35.40;19.00;;;;;;;16.81;64.88;99264.35;235973;1194;138956;-66
2021/10/04 19:24:09;;;;;;;39.10;19.20;;;;;;;16.69;65.10;99261.56;236262;1195;138950;-64
2021/10/04 19:29:12;;;;;;;38.50;19.10;;;;;;;16.59;65.08;99261.69;236052;1193;140253;-66
2021/10/04 19:34:19;;;;;;;;;;;;;;;16.54;65.20;99268.05;235183;1195;139310;-63
2021/10/04 19:39:25;;;;;;;57.20;22.30;;;;;;;16.47;65.62;99266.77;236173;1195;125413;-62
2021/10/04 19:44:28;;;;;;;50.90;25.30;;;;;;;16.41;65.48;99268.38;236273;1195;138798;-61
2021/10/04 19:49:32;;;;;;;50.40;27.90;;;;;;;16.30;65.68;99274.23;236433;1194;138559;-61
2021/10/04 19:54:48;;;;;;;48.30;27.50;;;;;;;16.22;65.73;99277.64;235664;1195;140088;-62
2021/10/04 19:59:51;;;;;;;43.80;27.00;;;;;;;16.17;66.10;99274.11;235650;1195;139678;-63
2021/10/04 20:04:54;;;;;;;51.00;28.90;;;;;;;16.20;66.03;99279.81;236273;1193;139249;-65
2021/10/04 20:09:58;;;;;;;53.00;28.90;;;;;;;16.21;66.41;99283.99;235880;1195;139430;-63
2021/10/04 20:15:04;;;;;;;47.70;29.00;;;;;;;16.20;66.31;99279.38;236288;1193;139368;-64
2021/10/04 20:20:08;;;;;;;62.10;30.70;;;;;;;16.21;66.68;99280.02;236344;1194;140134;-65
2021/10/04 20:25:16;;;;;;;49.00;29.10;;;;;;;16.21;66.83;99277.55;236125;1195;138570;-62
2021/10/04 20:30:20;;;;;;;51.50;29.90;;;;;;;16.20;66.69;99281.73;235875;1193;139405;-62
2021/10/04 20:35:23;;;;;;;56.10;33.40;;;;;;;16.20;66.80;99280.31;236178;1194;138954;-63
2021/10/04 20:40:27;;;;;;;54.80;33.70;;;;;;;16.20;66.77;99273.33;235687;1194;138803;-63
2021/10/04 20:45:31;;;;;;;57.90;33.50;;;;;;;16.17;66.96;99281.31;235768;1195;139188;-61
2021/10/04 20:50:34;;;;;;;51.80;32.80;;;;;;;16.10;66.75;99280.78;236046;1195;139553;-63
2021/10/04 20:55:37;;;;;;;46.90;30.90;;;;;;;16.00;66.82;99277.79;235098;1195;141845;-64
2021/10/04 21:00:40;;;;;;;51.10;31.10;;;;;;;15.98;67.11;99283.36;235866;1193;139374;-63
2021/10/04 21:05:51;;;;;;;53.40;33.50;;;;;;;16.00;67.11;99280.86;236402;1193;139930;-62
2021/10/04 21:10:56;;;;;;;50.20;32.80;;;;;;;16.03;67.21;99281.18;236346;1187;138144;-63
2021/10/04 21:16:01;;;;;;;53.40;33.00;;;;;;;16.02;67.56;99281.77;235815;1195;139250;-63
2021/10/04 21:21:06;;;;;;;53.70;33.00;;;;;;;16.04;67.64;99282.55;236341;1195;140347;-64
2021/10/04 21:26:10;;;;;;;47.50;28.40;;;;;;;16.04;67.67;99277.64;236336;1193;139520;-63
2021/10/04 21:31:13;;;;;;;47.30;28.80;;;;;;;16.06;67.76;99278.38;236289;1195;142140;-61
2021/10/04 21:36:17;;;;;;;47.40;28.30;;;;;;;16.10;67.71;99274.99;236073;1193;139844;-62
2021/10/04 21:41:20;;;;;;;52.80;28.70;;;;;;;16.14;67.61;99279.16;236257;1193;138465;-62
2021/10/04 21:46:24;;;;;;;46.10;27.50;;;;;;;16.12;67.59;99274.91;236358;1193;138624;-60
2021/10/04 21:51:27;;;;;;;45.70;27.80;;;;;;;16.05;67.63;99275.96;236090;1195;139100;-63
2021/10/04 21:56:30;;;;;;;50.00;26.30;;;;;;;15.97;67.70;99276.59;235862;1193;139006;-61
2021/10/04 22:01:56;;;;;;;299.40;209.90;;;;;;;15.93;67.65;99269.26;235906;1193;140052;-63
2021/10/04 22:12:19;;;;;;;45.70;29.50;;;;;;;15.88;67.82;99262.73;236209;1195;139495;-62
2021/10/04 22:17:23;;;;;;;49.30;29.00;;;;;;;15.78;67.70;99263.85;235817;1195;139021;-62
2021/10/04 22:22:26;;;;;;;46.60;29.80;;;;;;;15.66;67.61;99266.38;235988;1195;139630;-63
2021/10/04 22:27:29;;;;;;;50.20;28.30;;;;;;;15.60;67.79;99273.80;236182;1195;139696;-63
2021/10/04 22:32:32;;;;;;;49.30;28.60;;;;;;;15.53;67.81;99264.87;236218;1194;139487;-61
2021/10/04 22:37:35;;;;;;;48.90;29.60;;;;;;;15.47;67.75;99265.88;236380;1195;139755;-64
2021/10/04 22:42:39;;;;;;;46.80;29.90;;;;;;;15.41;67.88;99265.12;236397;1194;139166;-60
2021/10/04 22:47:42;;;;;;;48.60;29.80;;;;;;;15.35;67.89;99264.33;235515;1189;138944;-62
2021/10/04 22:52:45;;;;;;;47.60;30.70;;;;;;;15.26;67.93;99268.25;235613;1195;138787;-63
2021/10/04 22:57:48;;;;;;;49.30;29.50;;;;;;;15.18;67.93;99261.94;235266;1195;139625;-63
2021/10/04 23:02:52;;;;;;;45.00;28.10;;;;;;;15.12;68.11;99255.01;236178;1195;140021;-62
2021/10/04 23:07:58;;;;;;;44.50;29.50;;;;;;;15.19;68.47;99251.27;235455;1193;139325;-64